Station: Kowen Forest

  Atmospheric Gas Attenuation - ITU Rec 676-11   --------------- db/100km ---------------
Date Time Temp RH % AH g/m3 Dew Point Wind Direction Speed kph Gust kph Barometer mB Rainfall Since 9am 24GHz 47GHz 76GHz 122GHz 134GHz 241GHz
22 12:10 20.8 56 10.14 11.7 15 17 1013.1 0 22.5 26.3 42.2 111.1 109.0 376.5
22 11:50 20.4 55 9.73 11.1 13 20 1013.1 0 21.7 25.8 40.9 107.4 104.4 360.2
22 11:40 20.3 54 9.5 10.7 15 22 1013.1 0 21.2 25.4 40.1 105.2 101.6 350.6
22 11:20 20.7 53 9.54 11 19 24 1013.1 0 21.2 25.4 40.0 105.1 101.6 350.6
22 11:00 19.4 61 10.18 11.7 13 17 1013.1 0 22.7 26.8 43.1 113.5 111.5 385.0
22 10:50 19.5 59 9.9 11.4 15 20 1013.1 0 22.1 26.3 42.0 110.4 107.7 371.9
22 10:30 18.7 62 9.93 11.4 7 9 1013.1 0 22.2 26.6 42.5 111.8 109.2 377.0
22 10:10 18.3 63 9.85 11.2 7 15 1013.1 0 22.0 26.6 42.4 111.6 108.8 375.3
22 09:50 18.1 64 9.89 11.3 15 17 1013.1 0 22.1 26.7 42.7 112.3 109.6 378.1
22 09:40 18.7 61 9.77 11.2 9 13 1013.1 0 21.8 26.3 41.9 110.2 107.2 369.8
22 09:20 18.3 65 10.16 11.6 7 9 1013.1 0 22.7 27.1 43.7 114.8 112.8 389.5
22 09:10 17.8 69 10.47 12 4 7 1013.1 0 23.4 27.7 45.2 118.9 117.6 406.3
22 08:50 17.2 76 11.13 13 4 6 1013.1 0 24.8 29.0 48.3 127.1 127.5 440.8
22 08:30 17.5 72 10.73 12.4 2 4 1013.1 0 23.9 28.2 46.4 122.2 121.6 420.1
22 08:20 16.6 75 10.59 12.2 2 4 1013.1 0 23.7 28.3 46.4 122.1 121.1 418.3
22 08:10 15.7 77 10.3 11.7 2 2 1013.1 0 23.1 28.1 45.7 120.3 118.6 409.3
22 08:00 14.7 80 10.07 11.3 4 4 1013.1 0 22.7 28.0 45.3 119.2 116.9 403.5
22 07:50 13.8 88 10.49 11.8 4 4 1013.1 0 23.6 29.1 47.6 125.4 124.2 428.8
22 07:40 12.6 94 10.4 11.7 4 4 1013.1 0 23.5 29.3 48.0 126.3 124.9 431.0
22 07:30 11.5 96 9.92 10.9 4 6 1013.1 0 22.5 28.8 46.6 122.5 119.8 413.0
22 07:10 9.3 98 8.81 9 6 6 1013.1 0 20.3 27.6 43.0 113.0 107.3 368.9
22 06:50 7.3 99 7.83 7.1 2 4 1013.1 0 18.2 26.5 39.9 104.6 96.1 329.6
22 06:40 6.6 100 7.55 6.6 6 6 1013.1 0 17.7 26.3 39.0 102.4 93.0 318.8
22 06:30 6.5 100 7.5 6.5 6 6 1013.1 0 17.6 26.2 38.9 101.9 92.5 316.7
22 06:10 7.2 99 7.78 7.1 4 4 1013.1 0 18.1 26.5 39.7 104.2 95.5 327.6
22 06:00 7.1 99 7.72 7 4 4 1013.1 0 18.0 26.4 39.5 103.6 94.8 325.0
22 05:50 7.1 99 7.72 7 4 4 1013.1 0 18.0 26.4 39.5 103.6 94.8 325.0
22 05:30 6.9 99 7.63 6.8 2 2 1013.1 0 17.8 26.3 39.2 102.9 93.8 321.5
22 05:10 7.4 99 7.88 7.3 4 6 1013.1 0 18.3 26.6 40.0 105.1 96.7 331.6
22 05:00 6.8 99 7.58 6.7 4 6 1013.1 0 17.7 26.3 39.1 102.5 93.2 319.4
22 04:40 7.3 99 7.83 7.2 6 7 1013.1 0 18.2 26.5 39.9 104.6 96.1 329.6
22 04:20 7.1 99 7.72 7 4 6 1013.1 0 18.0 26.4 39.5 103.6 94.8 325.0
22 04:00 6.9 99 7.63 6.7 6 7 1013.1 0 17.8 26.3 39.2 102.9 93.8 321.5
22 03:50 7.2 99 7.78 7.1 6 7 1013.1 0 18.1 26.5 39.7 104.2 95.5 327.6
22 03:40 7.2 99 7.78 7 4 6 1013.1 0 18.1 26.5 39.7 104.2 95.5 327.6
22 03:30 7.4 99 7.88 7.2 2 4 1013.1 0 18.3 26.6 40.0 105.1 96.7 331.6
22 03:20 7.5 99 7.93 7.3 4 6 1013.1 0 18.4 26.6 40.2 105.5 97.3 333.7
22 03:10 7.8 99 8.08 7.6 4 6 1013.1 0 18.8 26.8 40.7 106.8 99.0 339.7
22 02:50 8.4 99 8.4 8.3 6 7 1013.1 0 19.4 27.2 41.8 109.6 102.7 352.8
22 02:40 8.4 99 8.4 8.2 6 7 1013.1 0 19.4 27.2 41.8 109.6 102.7 352.8
22 02:30 8.3 98 8.26 8 7 7 1013.1 0 19.1 27.0 41.2 108.2 100.9 346.4
22 02:20 8.5 98 8.37 8.2 4 7 1013.1 0 19.4 27.1 41.6 109.1 102.2 350.9
22 02:10 8.9 99 8.68 8.7 2 4 1013.1 0 20.0 27.5 42.7 112.1 106.0 364.4
22 01:50 9.5 97 8.83 9.1 4 6 1013.1 0 20.3 27.6 43.0 113.0 107.3 369.0
22 01:40 9.9 98 9.15 9.6 7 7 1013.1 0 21.0 28.0 44.2 116.1 111.2 382.9
22 01:30 10 99 9.3 9.8 6 7 1013.1 0 21.3 28.2 44.8 117.6 113.2 389.9
22 01:20 9.5 97 8.83 9.1 6 6 1013.1 0 20.3 27.6 43.0 113.0 107.3 369.0
22 01:10 10.3 97 9.29 9.9 2 2 1013.1 0 21.3 28.1 44.5 117.1 112.6 387.9
22 00:50 11 94 9.41 10.1 2 2 1013.1 0 21.5 28.1 44.7 117.4 113.3 390.3
22 00:40 11.7 94 9.83 10.7 4 4 1013.1 0 22.3 28.6 46.1 121.2 118.2 407.5
22 00:30 12 93 9.91 10.9 4 6 1013.1 0 22.5 28.6 46.2 121.6 118.9 409.9
22 00:20 12 93 9.91 10.9 6 6 1013.1 0 22.5 28.6 46.2 121.6 118.9 409.9
22 00:10 12 92 9.81 10.7 7 7 1013.1 0 22.3 28.5 45.8 120.5 117.5 404.9
21 23:50 12.1 92 9.87 10.8 7 7 1013.1 0 22.4 28.5 46.0 121.0 118.2 407.3
21 23:40 12.2 93 10.04 11.1 6 7 1013.1 0 22.8 28.8 46.7 122.8 120.4 415.2
21 23:20 12.3 92 9.99 11 7 7 1013.1 0 22.7 28.7 46.4 122.1 119.5 412.2
21 23:10 12.5 91 10.01 11.1 7 7 1013.1 0 22.7 28.7 46.4 122.0 119.5 412.1
21 22:50 12.8 90 10.08 11.2 9 11 1013.1 0 22.8 28.7 46.5 122.3 120.0 414.0
21 22:40 13.2 88 10.1 11.3 11 13 1013.1 0 22.8 28.6 46.3 121.9 119.7 412.8
21 22:30 13.5 86 10.06 11.2 13 17 1013.1 0 22.7 28.4 46.0 121.0 118.7 409.3
21 22:20 13.7 85 10.07 11.3 17 19 1013.1 0 22.7 28.4 45.9 120.8 118.5 408.7
21 22:10 13.8 85 10.13 11.4 15 19 1013.1 0 22.9 28.4 46.1 121.3 119.2 411.1
21 21:50 14.1 84 10.19 11.5 15 17 1013.1 0 23.0 28.4 46.2 121.5 119.5 412.4
21 21:40 14.2 84 10.26 11.6 13 15 1013.1 0 23.1 28.5 46.4 122.1 120.4 415.3
21 21:30 14.2 85 10.38 11.7 15 19 1013.1 0 23.4 28.7 46.9 123.5 122.0 421.2
21 21:20 14.4 84 10.38 11.7 13 17 1013.1 0 23.4 28.7 46.8 123.2 121.7 420.1
21 21:10 14.7 82 10.32 11.6 15 17 1013.1 0 23.2 28.5 46.4 122.0 120.4 415.6
21 20:50 15.5 77 10.18 11.6 11 17 1013.1 0 22.9 28.0 45.3 119.2 117.2 404.6
21 20:40 15.8 77 10.36 11.8 9 11 1013.1 0 23.2 28.2 45.9 120.8 119.2 411.6
21 20:30 16 76 10.35 11.8 7 9 1013.1 0 23.2 28.1 45.7 120.3 118.8 410.1
21 20:20 16.2 75 10.34 11.9 7 11 1013.1 0 23.2 28.0 45.6 119.9 118.3 408.6
21 20:10 16.4 74 10.33 11.7 13 15 1013.1 0 23.2 27.9 45.4 119.5 117.9 407.0
21 19:50 16.8 70 10.01 11.4 13 19 1013.1 0 22.4 27.3 43.9 115.4 113.0 390.0
21 19:40 16.9 70 10.07 11.5 13 15 1013.1 0 22.6 27.4 44.1 115.9 113.7 392.3
21 19:30 17.1 69 10.04 11.5 17 20 1013.1 0 22.5 27.2 43.8 115.3 113.0 389.9
21 19:20 17.3 71 10.46 12.1 13 17 1013.1 0 23.4 27.9 45.4 119.6 118.3 408.5
21 19:10 17.5 71 10.58 12.2 15 19 1013.1 0 23.6 28.0 45.8 120.6 119.6 413.1
21 18:40 18.6 64 10.19 11.7 13 17 1013.1 0 22.7 27.0 43.6 114.7 112.8 389.4
21 18:30 18.8 63 10.15 11.6 13 19 1013.1 0 22.6 26.9 43.4 114.0 111.9 386.5
21 18:20 18.7 63 10.09 11.7 11 17 1013.1 0 22.5 26.8 43.2 113.5 111.3 384.3
21 18:10 18.6 63 10.03 11.6 15 19 1013.1 0 22.4 26.8 43.0 113.0 110.7 382.1
21 17:50 19 66 10.75 12.5 19 26 1013.1 0 23.9 27.8 45.6 120.1 119.5 413.1
21 17:40 19.6 62 10.47 12.2 20 24 1013.1 0 23.3 27.2 44.2 116.2 114.9 397.1
21 17:30 19.7 58 9.85 11.4 19 22 1013.1 0 21.9 26.2 41.7 109.6 106.8 368.7
21 17:20 19.3 59 9.79 11.2 20 26 1013.1 0 21.8 26.2 41.7 109.5 106.6 367.9
21 17:10 19.7 60 10.19 11.7 22 26 1013.1 0 22.7 26.7 43.0 113.1 111.2 384.0
21 16:50 19.8 61 10.42 12.1 26 32 1013.1 0 23.2 27.0 43.9 115.4 114.0 393.9
21 16:40 20.3 63 11.08 13.1 22 24 1013.1 0 24.5 27.9 46.2 121.7 121.9 421.4
21 16:30 21.1 55 10.13 11.8 20 24 1013.1 0 22.5 26.2 42.0 110.5 108.4 374.6
21 16:20 21.9 52 10.03 11.8 22 28 1013.1 0 22.2 25.8 41.3 108.4 106.1 366.5
21 16:00 22.7 49 9.9 11.5 20 22 1013.1 0 21.9 25.4 40.4 106.1 103.4 357.3
21 15:50 21.6 51 9.67 11.1 15 20 1013.1 0 21.5 25.3 40.0 105.2 102.0 352.2
21 15:40 22.3 50 9.87 11.4 19 22 1013.1 0 21.9 25.4 40.4 106.3 103.6 357.8
21 15:30 22.1 48 9.37 10.8 17 22 1013.1 0 20.8 24.7 38.7 101.6 97.7 337.3
21 15:20 21.2 55 10.19 11.8 19 22 1013.1 0 22.6 26.2 42.2 111.0 109.1 376.8
21 15:10 22.8 50 10.16 11.8 15 20 1013.1 0 22.4 25.7 41.3 108.5 106.5 368.0
21 14:50 21.1 55 10.13 11.8 15 20 1013.1 0 22.5 26.2 42.0 110.5 108.4 374.6
21 14:30 21.2 52 9.64 11.1 11 20 1013.1 0 21.4 25.4 40.1 105.4 102.2 352.7
21 14:20 20.8 56 10.14 11.8 15 24 1013.1 0 22.5 26.3 42.2 111.1 109.0 376.5
21 14:10 20.8 56 10.14 11.9 15 19 1013.1 0 22.5 26.3 42.2 111.1 109.0 376.5

Last Refresh: 22-Jan-2022 12:12:43

Bureau of Meteorology